Big Bear Station Historical Data
Daily Summary for January 23, 2017 Units:  English    Metric   Both
« Previous Day
Next Day »
Daily Weekly Monthly Yearly Custom
  High: Low: Average:
Temperature: 31.8 °F 17.2 °F 24.4 °F
Dew Point: 31.1 °F 16.3 °F 23.5 °F
Humidity: 98 % 94 % 96 %
Wind Speed: 14.5 mph 0.0 mph 3.8 mph
Wind Gust: 20.7 mph - -
Wind:- - SSW
Pressure: 23.22 in 23.11 in -
Precipitation: 0.00 in    
Historical Graphs
 
 
Tabular Data for January 23, 2017
Time Temperature Dew Point Pressure Wind Wind Speed Wind Gust Humidity Rainfall Rate (Hourly)
00:13 31.6 °F 31.1 °F 23.22 in SSE 4.2 mph -999.0 mph 98 % 0 in
00:29 31.3 °F 30.8 °F 23.19 in SE 8.9 mph -999.0 mph 98 % 0 in
00:44 31.6 °F 31.1 °F 23.18 in South 4.2 mph -999.0 mph 98 % 0 in
00:59 31.8 °F 31.0 °F 23.18 in SE 11.4 mph -999.0 mph 97 % 0 in
01:14 31.6 °F 31.1 °F 23.17 in West 7.3 mph -999.0 mph 98 % 0 in
01:30 31.3 °F 30.8 °F 23.18 in ESE 13.0 mph -999.0 mph 98 % 0 in
01:45 31.1 °F 30.6 °F 23.18 in SSW 6.3 mph -999.0 mph 98 % 0 in
02:00 30.7 °F 30.2 °F 23.19 in WNW 6.8 mph -999.0 mph 98 % 0 in
02:15 30.4 °F 29.7 °F 23.18 in South 10.9 mph -999.0 mph 97 % 0 in
02:31 30.0 °F 29.5 °F 23.18 in SSW 5.8 mph -999.0 mph 98 % 0 in
02:46 29.7 °F 29.2 °F 23.18 in South 5.8 mph -999.0 mph 98 % 0 in
03:01 29.1 °F 28.6 °F 23.18 in South 2.2 mph -999.0 mph 98 % 0 in
03:17 27.9 °F 26.9 °F 23.18 in South 9.4 mph -999.0 mph 96 % 0 in
03:32 28.0 °F 27.3 °F 23.16 in NNE 5.8 mph -999.0 mph 97 % 0 in
03:47 27.3 °F 26.6 °F 23.17 in WNW 13.0 mph -999.0 mph 97 % 0 in
04:02 27.0 °F 26.3 °F 23.18 in SSW 2.7 mph 20.7 mph 97 % 0 in
04:18 26.8 °F 26.1 °F 23.16 in NNE 7.8 mph -999.0 mph 97 % 0 in
04:33 26.1 °F 24.6 °F 23.17 in SSE 4.7 mph -999.0 mph 94 % 0 in
04:48 25.7 °F 24.7 °F 23.16 in WSW 2.7 mph -999.0 mph 96 % 0 in
05:03 25.2 °F 24.2 °F 23.15 in ESE 8.3 mph -999.0 mph 96 % 0 in
05:19 25.2 °F 24.5 °F 23.15 in NW 2.7 mph -999.0 mph 97 % 0 in
05:34 25.2 °F 24.5 °F 23.16 in ESE 4.7 mph -999.0 mph 97 % 0 in
05:49 25.0 °F 24.3 °F 23.16 in ENE 3.2 mph -999.0 mph 97 % 0 in
06:05 24.8 °F 23.8 °F 23.16 in NNE 4.7 mph -999.0 mph 96 % 0 in
06:20 24.4 °F 23.4 °F 23.17 in WSW 4.2 mph -999.0 mph 96 % 0 in
06:35 24.1 °F 22.9 °F 23.17 in East 2.7 mph -999.0 mph 95 % 0 in
06:50 24.3 °F 23.6 °F 23.16 in SSW 3.7 mph -999.0 mph 97 % 0 in
07:05 24.1 °F 23.4 °F 23.16 in WSW 2.7 mph -999.0 mph 97 % 0 in
07:21 25.0 °F 24.3 °F 23.16 in ESE 4.2 mph -999.0 mph 97 % 0 in
07:36 25.0 °F 24.3 °F 23.16 in SSW 5.3 mph -999.0 mph 97 % 0 in
07:52 24.4 °F 23.7 °F 23.16 in WNW 5.3 mph -999.0 mph 97 % 0 in
08:07 24.6 °F 23.9 °F 23.17 in NW 7.8 mph -999.0 mph 97 % 0 in
08:23 24.8 °F 24.1 °F 23.17 in SE 3.7 mph -999.0 mph 97 % 0 in
08:38 24.8 °F 24.1 °F 23.18 in West 4.2 mph -999.0 mph 97 % 0 in
08:53 25.2 °F 24.5 °F 23.17 in South 4.2 mph -999.0 mph 97 % 0 in
09:09 25.0 °F 24.0 °F 23.17 in SSE 3.2 mph -999.0 mph 96 % 0 in
09:24 25.0 °F 24.0 °F 23.18 in SW 3.7 mph -999.0 mph 96 % 0 in
09:39 25.2 °F 24.2 °F 23.18 in NE 3.2 mph -999.0 mph 96 % 0 in
09:54 25.2 °F 24.5 °F 23.18 in SSE 3.2 mph -999.0 mph 97 % 0 in
10:10 25.2 °F 24.5 °F 23.18 in East 2.7 mph -999.0 mph 97 % 0 in
10:25 24.4 °F 23.7 °F 23.19 in SE 4.2 mph -999.0 mph 97 % 0 in
10:40 25.0 °F 24.0 °F 23.19 in ESE 3.2 mph -999.0 mph 96 % 0 in
10:55 25.0 °F 24.0 °F 23.17 in SSW 4.7 mph -999.0 mph 96 % 0 in
11:11 25.3 °F 24.3 °F 23.17 in West 5.8 mph -999.0 mph 96 % 0 in
11:26 25.3 °F 23.8 °F 23.16 in WSW 3.2 mph -999.0 mph 94 % 0 in
11:41 25.0 °F 24.0 °F 23.15 in South 5.3 mph -999.0 mph 96 % 0 in
11:57 25.0 °F 24.0 °F 23.15 in NNW 2.2 mph -999.0 mph 96 % 0 in
12:12 25.5 °F 24.5 °F 23.14 in NW 3.2 mph -999.0 mph 96 % 0 in
12:28 27.1 °F 25.6 °F 23.13 in SSE 3.7 mph -999.0 mph 94 % 0 in
12:43 25.5 °F 24.0 °F 23.13 in NNW 5.8 mph -999.0 mph 94 % 0 in
12:58 23.9 °F 22.7 °F 23.12 in SSW 5.8 mph 20.2 mph 95 % 0 in
13:14 25.2 °F 24.0 °F 23.12 in NW 4.2 mph -999.0 mph 95 % 0 in
13:29 25.5 °F 24.3 °F 23.11 in NNE 3.2 mph -999.0 mph 95 % 0 in
13:44 24.4 °F 23.2 °F 23.12 in WSW 2.2 mph -999.0 mph 95 % 0 in
13:59 23.9 °F 22.9 °F 23.11 in ESE 2.2 mph -999.0 mph 96 % 0 in
14:14 24.3 °F 23.3 °F 23.11 in NW 14.5 mph -999.0 mph 96 % 0 in
14:30 24.6 °F 23.6 °F 23.12 in NW 4.2 mph -999.0 mph 96 % 0 in
14:45 25.0 °F 23.8 °F 23.12 in NW 2.7 mph -999.0 mph 95 % 0 in
15:00 25.0 °F 23.5 °F 23.12 in NW 2.7 mph -999.0 mph 94 % 0 in
15:16 25.7 °F 24.2 °F 23.12 in WSW 3.2 mph -999.0 mph 94 % 0 in
15:31 25.2 °F 24.0 °F 23.12 in West 1.1 mph -999.0 mph 95 % 0 in
15:46 25.0 °F 23.8 °F 23.12 in WNW 3.7 mph -999.0 mph 95 % 0 in
16:01 24.6 °F 23.1 °F 23.12 in South 1.7 mph -999.0 mph 94 % 0 in
16:16 23.7 °F 22.2 °F 23.11 in Calm   -999.0 mph 94 % 0 in
16:32 23.2 °F 22.0 °F 23.11 in Calm   -999.0 mph 95 % 0 in
16:47 23.0 °F 21.8 °F 23.12 in SW 1.7 mph -999.0 mph 95 % 0 in
17:02 23.0 °F 21.8 °F 23.12 in NW 3.7 mph -999.0 mph 95 % 0 in
17:18 22.8 °F 21.6 °F 23.13 in WNW 1.1 mph -999.0 mph 95 % 0 in
17:33 22.8 °F 21.8 °F 23.13 in ENE 3.2 mph -999.0 mph 96 % 0 in
17:48 22.8 °F 21.8 °F 23.13 in SW 1.7 mph -999.0 mph 96 % 0 in
18:03 22.8 °F 21.8 °F 23.13 in Calm   -999.0 mph 96 % 0 in
18:19 22.8 °F 21.8 °F 23.12 in Calm   -999.0 mph 96 % 0 in
18:34 22.8 °F 21.8 °F 23.13 in NW 1.1 mph -999.0 mph 96 % 0 in
18:49 23.0 °F 22.0 °F 23.13 in SW 1.1 mph -999.0 mph 96 % 0 in
19:04 23.0 °F 22.0 °F 23.13 in SW 1.7 mph -999.0 mph 96 % 0 in
19:20 23.0 °F 22.0 °F 23.14 in SSE 1.1 mph -999.0 mph 96 % 0 in
19:35 23.0 °F 22.0 °F 23.14 in South 1.1 mph -999.0 mph 96 % 0 in
19:50 22.5 °F 21.3 °F 23.15 in North 3.2 mph -999.0 mph 95 % 0 in
20:05 21.2 °F 20.0 °F 23.15 in NW 4.2 mph -999.0 mph 95 % 0 in
20:21 20.7 °F 19.5 °F 23.15 in Calm   -999.0 mph 95 % 0 in
20:36 20.1 °F 18.9 °F 23.15 in Calm   -999.0 mph 95 % 0 in
20:51 19.2 °F 18.0 °F 23.15 in Calm   -999.0 mph 95 % 0 in
21:06 18.9 °F 17.7 °F 23.15 in SW 1.1 mph -999.0 mph 95 % 0 in
21:21 18.3 °F 17.1 °F 23.15 in Calm   -999.0 mph 95 % 0 in
21:37 17.8 °F 16.6 °F 23.15 in NW 1.1 mph -999.0 mph 95 % 0 in
21:52 17.2 °F 16.3 °F 23.15 in NW 2.2 mph -999.0 mph 96 % 0 in
22:07 17.4 °F 16.5 °F 23.16 in NNW 2.7 mph -999.0 mph 96 % 0 in
22:23 17.4 °F 16.5 °F 23.17 in WSW 1.1 mph -999.0 mph 96 % 0 in
22:38 18.0 °F 17.1 °F 23.17 in WSW 1.1 mph -999.0 mph 96 % 0 in
22:53 18.0 °F 17.1 °F 23.17 in Calm   -999.0 mph 96 % 0 in
23:09 17.4 °F 16.5 °F 23.17 in SW 2.2 mph -999.0 mph 96 % 0 in
23:24 17.8 °F 16.9 °F 23.17 in SW 2.2 mph -999.0 mph 96 % 0 in
23:39 17.4 °F 16.5 °F 23.17 in WNW 1.7 mph -999.0 mph 96 % 0 in
23:54 17.8 °F 16.9 °F 23.17 in NNW 5.3 mph -999.0 mph 96 % 0 in
Big Bear CA Weather
Compliments of Weather Underground - 1.5 mb